Elmore City, Oklahoma
Current Conditions -  °F | °C
As of 8:55 PM on Thursday 27 Nov 2014 (Local Time) from KPVJ Reporting Station
Clear Clear  
Wind Chill: 38°   Ceiling: Unl
Heat Index: 41°   Visibility: 10mi
Dew Point: 24°   Wind: 5mph
Humidity: 50%   Direction: 150°SSE
Pressure: 30.33"   Gusts: NA
Location:  34.62°N, 97.4°W
Report Text: KPVJ 280255Z AUTO 15004KT 10SM CLR 05/M05 A3033 RMK AO2 T00501047
Loading
Personal Weather Stations






























Interactive Weather Map New forecast layout! Learn more

10-Day Weather Forecast

Advertisements
Track Severe Weather on mobile